Time;durP1;ratioP1;P1;durP2;ratioP2;P2;SDS_P1;SDS_P2;PMS_P1;PMS_P2;Temp;Humidity;BMP_temperature;BMP_pressure;BME280_temperature;BME280_humidity;BME280_pressure;Samples;Min_cycle;Max_cycle;Signal;HPM_P1;HPM_P2
2024/04/11 00:00:17;;;;;;;10.67;4.60;;;7.70;99.90;;;;;;4548985;26;20252;-75
2024/04/11 00:02:18;;;;;;;8.67;4.70;;;7.70;99.90;;;;;;4548728;26;20594;-73
2024/04/11 00:04:24;;;;;;;8.03;3.97;;;7.70;99.90;;;;;;4560733;25;20324;-75
2024/04/11 00:06:25;;;;;;;7.87;4.17;;;7.70;99.90;;;;;;4553365;25;20338;-75
2024/04/11 00:08:28;;;;;;;9.40;4.30;;;7.70;99.90;;;;;;4564838;25;20264;-76
2024/04/11 00:10:29;;;;;;;9.77;4.63;;;7.70;99.90;;;;;;4554619;26;20237;-75
2024/04/11 00:12:30;;;;;;;7.77;4.23;;;7.60;99.90;;;;;;4563313;26;20986;-75
2024/04/11 00:14:34;;;;;;;8.03;4.40;;;7.70;99.90;;;;;;4555059;26;20242;-74
2024/04/11 00:16:35;;;;;;;10.43;4.97;;;7.60;99.90;;;;;;4561244;26;20288;-74
2024/04/11 00:18:39;;;;;;;11.17;4.87;;;7.60;99.90;;;;;;4552897;26;20766;-74
2024/04/11 00:20:43;;;;;;;10.13;4.57;;;7.60;99.90;;;;;;4558636;26;20728;-75
2024/04/11 00:22:50;;;;;;;8.63;4.53;;;7.60;99.90;;;;;;4555443;26;20290;-75
2024/04/11 00:24:51;;;;;;;14.93;4.97;;;7.60;99.90;;;;;;4543804;26;20769;-74
2024/04/11 00:26:55;;;;;;;9.17;4.37;;;7.60;99.90;;;;;;4558821;26;20307;-74
2024/04/11 00:28:56;;;;;;;10.17;4.80;;;7.50;99.90;;;;;;4564823;26;20277;-72
2024/04/11 00:30:59;;;;;;;11.93;4.80;;;7.60;99.90;;;;;;4551772;25;20650;-74
2024/04/11 00:33:00;;;;;;;8.80;4.80;;;7.50;99.90;;;;;;4560197;26;20249;-74
2024/04/11 00:35:04;;;;;;;10.00;4.80;;;7.50;99.90;;;;;;4548561;26;20858;-74
2024/04/11 00:37:11;;;;;;;11.67;4.67;;;7.50;99.90;;;;;;4560926;26;20284;-74
2024/04/11 00:39:18;;;;;;;9.93;4.40;;;7.50;99.90;;;;;;4556064;26;20235;-75
2024/04/11 00:41:19;;;;;;;7.30;4.30;;;7.40;99.90;;;;;;4554617;26;20270;-75
2024/04/11 00:43:23;;;;;;;9.17;4.40;;;7.40;99.90;;;;;;4566762;26;20249;-74
2024/04/11 00:45:25;;;;;;;8.60;4.23;;;7.40;99.90;;;;;;4558020;26;20949;-74
2024/04/11 00:47:28;;;;;;;7.93;4.53;;;7.30;99.90;;;;;;4553496;26;20241;-75
2024/04/11 00:49:30;;;;;;;10.27;4.17;;;7.30;99.90;;;;;;4555045;26;20760;-75
2024/04/11 00:51:33;;;;;;;6.97;4.27;;;7.30;99.90;;;;;;4558189;26;20277;-74
2024/04/11 00:53:40;;;;;;;6.97;4.33;;;7.20;99.90;;;;;;4561339;26;20242;-74
2024/04/11 00:55:44;;;;;;;9.77;5.23;;;7.20;99.90;;;;;;4559049;26;20289;-74
2024/04/11 00:57:45;;;;;;;11.53;4.50;;;7.20;99.90;;;;;;4560330;26;22129;-74
2024/04/11 00:59:50;;;;;;;7.73;4.63;;;7.10;99.90;;;;;;4560620;26;20245;-73
2024/04/11 01:01:51;;;;;;;6.67;4.03;;;7.10;99.90;;;;;;4554592;26;20244;-73
2024/04/11 01:03:55;;;;;;;7.40;4.43;;;7.10;99.90;;;;;;4564924;26;20240;-73
2024/04/11 01:05:56;;;;;;;9.40;4.90;;;7.10;99.90;;;;;;4556846;26;20249;-73
2024/04/11 01:08:06;;;;;;;13.37;4.90;;;7.10;99.90;;;;;;4548633;26;20342;-73
2024/04/11 01:10:16;;;;;;;10.63;4.90;;;7.00;99.90;;;;;;4548998;26;20379;-74
2024/04/11 01:12:21;;;;;;;10.30;4.77;;;7.00;99.90;;;;;;4556449;26;20241;-74
2024/04/11 01:14:23;;;;;;;10.23;5.20;;;7.00;99.90;;;;;;4550549;26;20236;-74
2024/04/11 01:16:28;;;;;;;8.97;4.80;;;7.00;99.90;;;;;;4554521;26;20288;-73
2024/04/11 01:18:29;;;;;;;10.67;4.80;;;7.00;99.90;;;;;;4554439;26;20246;-74
2024/04/11 01:20:33;;;;;;;7.10;4.43;;;7.00;99.90;;;;;;4559334;26;20353;-74
2024/04/11 01:22:38;;;;;;;10.30;4.93;;;7.00;99.90;;;;;;4547213;26;20306;-74
2024/04/11 01:24:43;;;;;;;7.90;4.40;;;6.90;99.90;;;;;;4554343;26;20235;-74
2024/04/11 01:26:44;;;;;;;10.80;4.77;;;6.90;99.90;;;;;;4547659;26;20252;-74
2024/04/11 01:28:47;;;;;;;7.40;4.83;;;6.90;99.90;;;;;;4562282;26;20242;-73
2024/04/11 01:30:48;;;;;;;10.80;5.00;;;6.90;99.90;;;;;;4550802;26;20756;-74
2024/04/11 01:32:59;;;;;;;8.80;5.17;;;6.90;99.90;;;;;;4559483;26;20287;-74
2024/04/11 01:35:00;;;;;;;9.07;4.70;;;6.90;99.90;;;;;;4555615;26;20244;-74
2024/04/11 01:37:04;;;;;;;6.97;4.60;;;6.90;99.90;;;;;;4564171;26;20369;-73
2024/04/11 01:39:11;;;;;;;7.93;4.90;;;6.80;99.90;;;;;;4543491;25;20253;-73
2024/04/11 01:41:14;;;;;;;9.57;4.80;;;6.80;99.90;;;;;;4556412;25;20272;-72
2024/04/11 01:43:15;;;;;;;8.70;4.93;;;6.80;99.90;;;;;;4563104;25;20642;-73
2024/04/11 01:45:19;;;;;;;12.50;5.40;;;6.80;99.90;;;;;;4553388;25;20275;-72
2024/04/11 01:47:20;;;;;;;10.80;5.03;;;6.80;99.90;;;;;;4556444;26;20321;-73
2024/04/11 01:49:24;;;;;;;9.90;4.90;;;6.80;99.90;;;;;;4553426;26;20661;-73
2024/04/11 01:51:25;;;;;;;10.27;5.20;;;6.80;99.90;;;;;;4556431;26;20256;-72
2024/04/11 01:53:29;;;;;;;13.97;5.17;;;6.80;99.90;;;;;;4547016;26;20271;-73
2024/04/11 01:55:32;;;;;;;12.20;5.27;;;6.80;99.90;;;;;;4550404;26;20621;-72
2024/04/11 01:57:37;;;;;;;11.90;6.00;;;6.70;99.90;;;;;;4564993;26;20258;-72
2024/04/11 01:59:38;;;;;;;9.80;5.37;;;6.70;99.90;;;;;;4558200;26;20488;-72
2024/04/11 02:01:44;;;;;;;10.53;5.57;;;6.70;99.90;;;;;;4550716;26;20242;-72
2024/04/11 02:03:45;;;;;;;11.10;5.43;;;6.70;99.90;;;;;;4551805;26;20591;-73
2024/04/11 02:05:49;;;;;;;10.53;5.47;;;6.70;99.90;;;;;;4558646;26;20248;-73
2024/04/11 02:07:50;;;;;;;11.77;5.77;;;6.60;99.90;;;;;;4598864;25;20395;-73
2024/04/11 02:09:56;;;;;;;8.63;4.70;;;6.60;99.90;;;;;;4556313;26;20236;-73
2024/04/11 02:12:00;;;;;;;11.13;4.83;;;6.60;99.90;;;;;;4546655;26;20267;-73
2024/04/11 02:14:04;;;;;;;8.77;5.00;;;6.60;99.90;;;;;;4553726;26;20340;-73
2024/04/11 02:16:06;;;;;;;10.20;5.10;;;6.50;99.90;;;;;;4554738;26;20483;-73
2024/04/11 02:18:10;;;;;;;14.47;5.70;;;6.50;99.90;;;;;;4548159;25;20899;-73
2024/04/11 02:20:11;;;;;;;12.17;5.47;;;6.50;99.90;;;;;;4550595;26;20534;-73
2024/04/11 02:22:17;;;;;;;12.77;5.50;;;6.50;99.90;;;;;;4548821;26;20246;-73
2024/04/11 02:24:18;;;;;;;11.10;5.17;;;6.50;99.90;;;;;;4553074;26;20253;-73
2024/04/11 02:26:22;;;;;;;9.53;5.37;;;6.50;99.90;;;;;;4553981;26;20241;-73
2024/04/11 02:28:25;;;;;;;8.13;4.73;;;6.50;99.90;;;;;;4557897;26;20240;-73
2024/04/11 02:30:29;;;;;;;7.90;4.73;;;6.50;99.90;;;;;;4549480;26;20247;-73
2024/04/11 02:32:30;;;;;;;7.63;4.70;;;6.40;99.90;;;;;;4554292;26;20666;-72
2024/04/11 02:34:34;;;;;;;9.97;4.57;;;6.40;99.90;;;;;;4552109;26;20271;-72
2024/04/11 02:36:35;;;;;;;9.20;4.53;;;6.40;99.90;;;;;;4549159;26;20256;-72
2024/04/11 02:38:38;;;;;;;10.17;4.80;;;6.30;99.90;;;;;;4552626;26;20283;-72
2024/04/11 02:40:39;;;;;;;7.33;4.80;;;6.30;99.90;;;;;;4550259;25;20589;-72
2024/04/11 02:42:43;;;;;;;9.27;4.93;;;6.30;99.90;;;;;;4551365;26;20559;-73
2024/04/11 02:44:50;;;;;;;15.73;5.93;;;6.30;99.90;;;;;;4552144;26;20339;-73
2024/04/11 02:46:54;;;;;;;8.83;5.23;;;6.30;99.90;;;;;;4554002;26;20240;-72
2024/04/11 02:48:55;;;;;;;13.20;5.83;;;6.30;99.90;;;;;;4556376;25;20528;-72
2024/04/11 02:50:59;;;;;;;11.20;5.50;;;6.30;99.90;;;;;;4552882;26;20779;-72
2024/04/11 02:53:00;;;;;;;10.17;5.43;;;6.30;99.90;;;;;;4551504;26;20300;-73
2024/04/11 02:55:04;;;;;;;14.07;6.50;;;6.30;99.90;;;;;;4553651;26;20290;-72
2024/04/11 02:57:05;;;;;;;10.40;5.27;;;6.30;99.90;;;;;;4549770;26;20260;-73
2024/04/11 02:59:11;;;;;;;10.47;5.20;;;6.30;99.90;;;;;;4548906;26;20775;-72
2024/04/11 03:01:15;;;;;;;10.53;5.40;;;6.30;99.90;;;;;;4553699;26;20646;-72
2024/04/11 03:03:18;;;;;;;11.30;5.47;;;6.30;99.90;;;;;;4547541;26;20259;-73
2024/04/11 03:05:22;;;;;;;10.60;5.50;;;6.30;99.90;;;;;;4551308;25;20249;-73
2024/04/11 03:07:27;;;;;;;9.23;5.00;;;6.20;99.90;;;;;;4556772;26;20481;-73
2024/04/11 03:09:28;;;;;;;11.23;5.93;;;6.20;99.90;;;;;;4554197;26;20809;-73
2024/04/11 03:11:29;;;;;;;13.60;5.70;;;6.20;99.90;;;;;;4549384;26;20309;-73
2024/04/11 03:13:33;;;;;;;11.47;5.57;;;6.20;99.90;;;;;;4553560;26;20241;-75
2024/04/11 03:15:34;;;;;;;11.03;5.33;;;6.20;99.90;;;;;;4552717;26;21102;-75
2024/04/11 03:17:41;;;;;;;9.60;5.57;;;6.20;99.90;;;;;;4559888;25;20458;-75
2024/04/11 03:19:42;;;;;;;10.40;5.23;;;6.10;99.90;;;;;;4548710;26;20245;-74
2024/04/11 03:21:46;;;;;;;10.17;5.43;;;6.10;99.90;;;;;;4549315;25;20241;-74
2024/04/11 03:23:47;;;;;;;9.47;4.97;;;6.10;99.90;;;;;;4550089;26;20244;-74
2024/04/11 03:25:50;;;;;;;11.03;5.60;;;6.10;99.90;;;;;;4546549;26;20695;-74
2024/04/11 03:27:51;;;;;;;13.17;5.60;;;6.10;99.90;;;;;;4547447;26;20252;-74
2024/04/11 03:29:55;;;;;;;10.73;5.90;;;6.10;99.90;;;;;;4546725;26;20745;-73
2024/04/11 03:31:56;;;;;;;6.83;4.40;;;6.10;99.90;;;;;;4555144;26;20316;-74
2024/04/11 03:34:04;;;;;;;10.17;5.43;;;6.00;99.90;;;;;;4545902;26;20620;-73
2024/04/11 03:36:09;;;;;;;13.30;5.27;;;6.00;99.90;;;;;;4546875;26;20241;-73
2024/04/11 03:38:13;;;;;;;9.93;5.23;;;6.00;99.90;;;;;;4546961;25;20237;-75
2024/04/11 03:40:15;;;;;;;9.33;5.20;;;6.00;99.90;;;;;;4550462;26;20639;-74
2024/04/11 03:42:20;;;;;;;11.57;5.60;;;5.90;99.90;;;;;;4546672;25;20337;-75
2024/04/11 03:44:23;;;;;;;10.63;5.53;;;5.90;99.90;;;;;;4547406;26;20320;-74
2024/04/11 03:46:24;;;;;;;10.73;5.60;;;5.90;99.90;;;;;;4556342;25;20283;-74
2024/04/11 03:48:28;;;;;;;10.50;5.27;;;5.90;99.90;;;;;;4553969;25;21017;-74
2024/04/11 03:50:35;;;;;;;14.47;6.23;;;5.90;99.90;;;;;;4557813;26;20590;-75
2024/04/11 03:52:36;;;;;;;18.57;8.00;;;5.90;99.90;;;;;;4555520;26;20290;-75
2024/04/11 03:54:40;;;;;;;15.30;7.90;;;5.90;99.90;;;;;;4549713;26;20287;-75
2024/04/11 03:56:42;;;;;;;14.87;6.13;;;5.80;99.90;;;;;;4554533;26;20252;-74
2024/04/11 03:58:43;;;;;;;12.23;6.37;;;5.80;99.90;;;;;;4559807;26;20248;-74
2024/04/11 04:00:47;;;;;;;14.73;5.77;;;5.90;99.90;;;;;;4550787;25;20902;-74
2024/04/11 04:02:48;;;;;;;10.93;5.17;;;5.80;99.90;;;;;;4555600;26;20769;-74
2024/04/11 04:04:52;;;;;;;11.27;5.50;;;5.80;99.90;;;;;;4563170;26;20453;-75
2024/04/11 04:06:57;;;;;;;12.33;6.13;;;5.90;99.90;;;;;;4550003;25;20242;-74
2024/04/11 04:09:01;;;;;;;11.50;5.80;;;5.90;99.90;;;;;;4561984;26;20244;-75
2024/04/11 04:11:02;;;;;;;10.20;5.27;;;5.90;99.90;;;;;;4550779;26;20530;-75
2024/04/11 04:13:09;;;;;;;13.23;5.40;;;5.90;99.90;;;;;;4548959;25;20516;-75
2024/04/11 04:15:12;;;;;;;12.37;5.47;;;5.80;99.90;;;;;;4548745;25;20378;-75
2024/04/11 04:17:16;;;;;;;18.17;9.57;;;5.80;99.90;;;;;;4550393;26;20516;-74
2024/04/11 04:19:20;;;;;;;18.17;7.30;;;5.80;99.90;;;;;;4551520;26;20666;-74
2024/04/11 04:21:26;;;;;;;16.23;6.93;;;5.80;99.90;;;;;;4548195;26;20527;-74
2024/04/11 04:23:32;;;;;;;15.23;6.00;;;5.80;99.90;;;;;;4551177;26;20646;-73
2024/04/11 04:25:33;;;;;;;15.80;5.57;;;5.70;99.90;;;;;;4550317;25;20450;-73
2024/04/11 04:27:37;;;;;;;12.57;5.70;;;5.70;99.90;;;;;;4550168;26;20833;-74
2024/04/11 04:29:39;;;;;;;12.03;5.53;;;5.70;99.90;;;;;;4547419;26;20482;-74
2024/04/11 04:31:42;;;;;;;11.77;5.70;;;5.80;99.90;;;;;;4556545;25;20485;-74
2024/04/11 04:33:47;;;;;;;9.73;5.23;;;5.70;99.90;;;;;;4554010;26;20521;-74
2024/04/11 04:35:51;;;;;;;12.07;5.67;;;5.70;99.90;;;;;;4551957;26;20531;-74
2024/04/11 04:37:52;;;;;;;12.10;5.57;;;5.70;99.90;;;;;;4558051;26;20468;-74
2024/04/11 04:39:59;;;;;;;11.40;5.60;;;5.70;99.90;;;;;;4551812;26;21488;-75
2024/04/11 04:42:00;;;;;;;11.87;5.40;;;5.70;99.90;;;;;;4551869;25;20694;-75
2024/04/11 04:44:05;;;;;;;10.00;5.57;;;5.70;99.90;;;;;;4549017;25;20465;-75
2024/04/11 04:46:06;;;;;;;12.83;5.63;;;5.70;99.90;;;;;;4556287;26;20713;-75
2024/04/11 04:48:12;;;;;;;12.10;5.03;;;5.70;99.90;;;;;;4550719;26;20545;-74
2024/04/11 04:50:18;;;;;;;12.43;4.97;;;5.70;99.90;;;;;;4548037;26;20245;-74
2024/04/11 04:52:24;;;;;;;13.23;5.23;;;5.70;99.90;;;;;;4550427;26;20343;-73
2024/04/11 04:54:26;;;;;;;9.90;4.97;;;5.70;99.90;;;;;;4553828;26;21901;-73
2024/04/11 04:56:32;;;;;;;9.90;5.30;;;5.70;99.90;;;;;;4554824;26;20561;-73
2024/04/11 04:58:36;;;;;;;11.70;5.53;;;5.60;99.90;;;;;;4556458;26;20233;-74
2024/04/11 05:00:37;;;;;;;10.10;5.47;;;5.60;99.90;;;;;;4549896;25;20252;-74
2024/04/11 05:02:41;;;;;;;12.07;6.10;;;5.70;99.90;;;;;;4557851;26;20542;-73
2024/04/11 05:04:44;;;;;;;18.47;8.67;;;5.70;99.90;;;;;;4550300;25;20521;-74
2024/04/11 05:06:57;;;;;;;15.80;6.90;;;5.70;99.90;;;;;;4551953;26;20981;-74
2024/04/11 05:09:10;;;;;;;15.93;6.60;;;5.70;99.90;;;;;;4555413;25;20838;-75
2024/04/11 05:11:13;;;;;;;12.77;6.20;;;5.70;99.90;;;;;;4558086;26;20247;-74
2024/04/11 05:13:26;;;;;;;11.97;6.03;;;5.70;99.90;;;;;;4555559;26;20477;-74
2024/04/11 05:15:35;;;;;;;9.10;5.33;;;5.70;99.90;;;;;;4551160;25;20464;-74
2024/04/11 05:17:41;;;;;;;10.33;5.47;;;5.70;99.90;;;;;;4549135;26;20460;-74
2024/04/11 05:19:46;;;;;;;11.63;4.87;;;5.70;99.90;;;;;;4553857;26;20520;-74
2024/04/11 05:21:47;;;;;;;11.20;5.03;;;5.80;99.90;;;;;;4549907;26;20535;-76
2024/04/11 05:23:55;;;;;;;9.60;4.80;;;5.70;99.90;;;;;;4548145;26;20622;-74
2024/04/11 05:25:56;;;;;;;9.20;5.30;;;5.80;99.90;;;;;;4550512;25;20487;-75
2024/04/11 05:27:59;;;;;;;13.40;5.27;;;5.70;99.90;;;;;;4555188;26;20466;-74
2024/04/11 05:30:10;;;;;;;9.37;5.40;;;5.70;99.90;;;;;;4547189;26;20240;-74
2024/04/11 05:32:16;;;;;;;9.37;5.17;;;5.70;99.90;;;;;;4550436;26;20548;-74
2024/04/11 05:34:20;;;;;;;10.43;5.33;;;5.80;99.90;;;;;;4548725;26;20284;-74
2024/04/11 05:36:28;;;;;;;12.93;5.90;;;5.80;99.90;;;;;;4560825;26;20492;-74
2024/04/11 05:38:30;;;;;;;8.90;4.97;;;5.80;99.90;;;;;;4549769;26;20516;-74
2024/04/11 05:40:34;;;;;;;14.73;5.53;;;5.80;99.90;;;;;;4548924;26;20485;-74
2024/04/11 05:42:36;;;;;;;11.90;5.57;;;5.90;99.90;;;;;;4550075;26;20454;-74
2024/04/11 05:44:40;;;;;;;13.37;5.57;;;5.90;99.90;;;;;;4550407;26;20537;-74
2024/04/11 05:46:45;;;;;;;16.00;5.33;;;5.90;99.90;;;;;;4553629;26;20235;-74
2024/04/11 05:48:52;;;;;;;14.93;5.90;;;6.00;99.90;;;;;;4545475;26;20459;-74
2024/04/11 05:50:54;;;;;;;19.57;5.80;;;6.00;99.90;;;;;;4555025;26;20543;-74
2024/04/11 05:53:00;;;;;;;11.63;6.03;;;6.00;99.90;;;;;;4552363;26;20543;-74
2024/04/11 05:55:02;;;;;;;9.83;5.00;;;6.00;99.90;;;;;;4543159;26;20312;-74
2024/04/11 05:57:06;;;;;;;10.50;5.50;;;6.00;99.90;;;;;;4552099;25;20241;-71
2024/04/11 05:59:08;;;;;;;12.60;5.40;;;6.10;99.90;;;;;;4550578;25;20335;-71
2024/04/11 06:01:15;;;;;;;11.07;5.33;;;6.10;99.90;;;;;;4551825;26;21001;-71
2024/04/11 06:03:22;;;;;;;12.83;5.63;;;6.20;99.90;;;;;;4551587;25;20285;-71
2024/04/11 06:05:26;;;;;;;11.77;5.77;;;6.30;99.90;;;;;;4545852;25;20512;-72
2024/04/11 06:07:29;;;;;;;10.97;5.40;;;6.30;99.90;;;;;;4547952;25;20473;-70
2024/04/11 06:09:34;;;;;;;13.03;6.20;;;6.40;99.90;;;;;;4551714;26;20500;-70
2024/04/11 06:11:37;;;;;;;9.13;5.10;;;6.40;99.90;;;;;;4551144;26;20288;-70
2024/04/11 06:13:38;;;;;;;17.63;5.43;;;6.50;99.90;;;;;;4551266;26;20943;-70
2024/04/11 06:15:44;;;;;;;12.37;5.00;;;6.50;99.90;;;;;;4554945;25;20305;-71
2024/04/11 06:17:44;;;;;;;10.80;5.13;;;6.50;99.90;;;;;;4543766;26;20247;-70
2024/04/11 06:19:51;;;;;;;11.27;5.03;;;6.60;99.90;;;;;;4547166;25;21227;-71
2024/04/11 06:21:53;;;;;;;12.70;4.97;;;6.60;99.90;;;;;;4547043;25;20288;-70
2024/04/11 06:23:56;;;;;;;16.37;5.40;;;6.60;99.90;;;;;;4548888;26;20457;-71
2024/04/11 06:25:58;;;;;;;10.90;4.83;;;6.80;99.90;;;;;;4547182;25;20476;-71
2024/04/11 06:28:01;;;;;;;10.47;4.60;;;6.80;99.90;;;;;;4549528;25;20249;-70
2024/04/11 06:30:02;;;;;;;12.20;5.07;;;6.90;99.90;;;;;;4546179;26;20597;-72
2024/04/11 06:32:07;;;;;;;11.53;4.43;;;6.90;99.90;;;;;;4546242;26;20466;-71
2024/04/11 06:34:08;;;;;;;8.63;4.73;;;6.90;99.90;;;;;;4548040;26;20297;-71
2024/04/11 06:36:17;;;;;;;11.37;4.87;;;7.00;99.90;;;;;;4549239;25;20283;-70
2024/04/11 06:38:20;;;;;;;13.17;4.70;;;7.00;99.90;;;;;;4575521;25;20290;-71
2024/04/11 06:40:24;;;;;;;16.37;5.40;;;7.10;99.90;;;;;;4581023;25;20295;-71
2024/04/11 06:42:25;;;;;;;16.23;4.83;;;7.20;99.90;;;;;;4550653;25;20284;-70
2024/04/11 06:44:29;;;;;;;12.27;4.27;;;7.30;99.90;;;;;;4552441;25;20244;-70
2024/04/11 06:46:30;;;;;;;10.17;4.70;;;7.40;99.90;;;;;;4550566;26;20643;-71
2024/04/11 06:48:35;;;;;;;12.20;4.90;;;7.50;99.90;;;;;;4551894;25;20740;-71
2024/04/11 06:50:36;;;;;;;10.23;4.00;;;7.50;99.90;;;;;;4545042;26;20263;-71
2024/04/11 06:52:42;;;;;;;9.80;4.53;;;7.60;99.90;;;;;;4546075;26;20305;-70
2024/04/11 06:54:46;;;;;;;12.93;4.77;;;7.60;99.90;;;;;;4547259;25;20852;-71
2024/04/11 06:56:52;;;;;;;9.20;4.70;;;7.70;99.90;;;;;;4545864;26;20250;-70
2024/04/11 06:58:55;;;;;;;12.40;4.90;;;7.70;99.90;;;;;;4548129;26;20263;-71
2024/04/11 07:01:00;;;;;;;11.77;4.83;;;7.80;99.90;;;;;;4546641;25;20656;-72
2024/04/11 07:03:13;;;;;;;12.17;5.30;;;7.80;99.90;;;;;;4550054;25;20286;-71
2024/04/11 07:05:20;;;;;;;12.50;4.77;;;7.90;99.90;;;;;;4551883;25;20292;-70
2024/04/11 07:07:21;;;;;;;9.00;4.47;;;8.00;99.90;;;;;;4554346;26;20241;-70
2024/04/11 07:09:37;;;;;;;9.23;4.20;;;8.00;99.90;;;;;;4555417;26;20294;-70
2024/04/11 07:11:40;;;;;;;11.13;3.97;;;8.10;99.90;;;;;;4553535;25;20382;-74
2024/04/11 07:13:45;;;;;;;9.00;3.50;;;8.30;99.90;;;;;;4547954;26;20241;-74
2024/04/11 07:15:46;;;;;;;12.10;4.07;;;8.40;99.90;;;;;;4560593;26;20250;-74
2024/04/11 07:17:56;;;;;;;8.27;3.77;;;8.50;99.90;;;;;;4547764;25;20281;-74
2024/04/11 07:19:58;;;;;;;7.47;3.47;;;8.50;99.90;;;;;;4550960;26;20301;-73
2024/04/11 07:22:08;;;;;;;7.37;3.63;;;8.60;99.90;;;;;;4544806;26;20250;-74
2024/04/11 07:24:09;;;;;;;13.70;3.87;;;8.70;99.90;;;;;;4550397;26;20246;-74
2024/04/11 07:26:16;;;;;;;12.43;3.73;;;8.80;99.90;;;;;;4549045;26;20727;-74
2024/04/11 07:28:17;;;;;;;6.43;3.13;;;8.90;99.90;;;;;;4551817;26;20273;-74
2024/04/11 07:30:23;;;;;;;7.43;3.50;;;9.00;99.90;;;;;;4546237;26;20386;-73
2024/04/11 07:32:24;;;;;;;9.37;3.40;;;9.00;99.90;;;;;;4545880;26;20251;-74
2024/04/11 07:34:28;;;;;;;11.03;3.43;;;9.10;99.90;;;;;;4552060;26;20239;-73
2024/04/11 07:36:30;;;;;;;6.77;3.43;;;9.20;99.90;;;;;;4553175;26;20244;-74
2024/04/11 07:38:34;;;;;;;6.20;3.70;;;9.30;99.90;;;;;;4547986;26;20344;-74
2024/04/11 07:40:45;;;;;;;6.77;3.20;;;9.30;99.90;;;;;;4550683;26;20271;-74
2024/04/11 07:42:55;;;;;;;7.13;3.00;;;9.40;99.90;;;;;;4557032;25;20716;-74
2024/04/11 07:44:56;;;;;;;7.33;3.00;;;9.50;99.90;;;;;;4544686;26;20755;-73
2024/04/11 07:47:05;;;;;;;10.43;3.57;;;9.60;99.90;;;;;;4551533;26;20275;-74
2024/04/11 07:49:09;;;;;;;7.40;3.00;;;9.70;99.90;;;;;;4550443;26;20353;-74
2024/04/11 07:51:13;;;;;;;10.90;3.60;;;9.80;99.90;;;;;;4550500;26;20296;-74
2024/04/11 07:53:14;;;;;;;7.50;3.20;;;9.90;99.90;;;;;;4547393;26;20257;-74
2024/04/11 07:55:18;;;;;;;5.50;2.60;;;10.10;99.90;;;;;;4549389;26;20240;-74
2024/04/11 07:57:19;;;;;;;8.50;3.10;;;10.10;99.90;;;;;;4548726;26;20291;-74
2024/04/11 07:59:26;;;;;;;13.00;2.97;;;10.20;99.90;;;;;;4546156;26;20244;-74
2024/04/11 08:01:30;;;;;;;8.30;2.83;;;10.40;99.90;;;;;;4553622;26;20650;-74
2024/04/11 08:03:34;;;;;;;10.23;2.70;;;10.50;99.90;;;;;;4554519;26;20273;-74
2024/04/11 08:05:36;;;;;;;5.17;2.83;;;10.60;99.90;;;;;;4551499;26;22043;-73
2024/04/11 08:07:42;;;;;;;7.63;2.80;;;10.80;99.90;;;;;;4549659;25;20596;-74
2024/04/11 08:09:44;;;;;;;7.27;3.20;;;10.90;99.90;;;;;;4553990;26;20241;-73
2024/04/11 08:11:47;;;;;;;6.07;2.57;;;10.90;99.90;;;;;;4554237;26;20346;-73
2024/04/11 08:13:48;;;;;;;6.47;2.80;;;11.00;99.90;;;;;;4555349;26;20252;-73
2024/04/11 08:15:55;;;;;;;6.07;2.50;;;11.10;99.90;;;;;;4550471;26;20283;-73
2024/04/11 08:17:56;;;;;;;8.13;2.90;;;11.10;99.90;;;;;;4547333;26;20345;-73
2024/04/11 08:19:59;;;;;;;5.50;2.50;;;11.30;99.90;;;;;;4545990;26;20287;-73
2024/04/11 08:22:01;;;;;;;6.40;2.63;;;11.30;99.90;;;;;;4549795;26;20742;-73
2024/04/11 08:24:04;;;;;;;6.67;2.50;;;11.40;99.90;;;;;;4549993;26;20242;-73
2024/04/11 08:26:06;;;;;;;6.57;2.67;;;11.50;99.90;;;;;;4551200;25;20304;-73
2024/04/11 08:28:07;;;;;;;10.10;2.30;;;11.60;99.90;;;;;;4549559;26;20237;-72
2024/04/11 08:30:11;;;;;;;5.40;2.40;;;11.60;99.90;;;;;;4552872;26;20259;-73
2024/04/11 08:32:15;;;;;;;10.03;2.67;;;11.80;99.90;;;;;;4548969;26;20288;-73
2024/04/11 08:34:20;;;;;;;6.00;2.40;;;11.80;99.90;;;;;;4546838;26;20230;-74
2024/04/11 08:36:22;;;;;;;8.27;2.23;;;11.90;99.90;;;;;;4549845;26;20237;-73
2024/04/11 08:38:23;;;;;;;9.20;1.80;;;11.90;99.90;;;;;;4551387;25;20297;-73
2024/04/11 08:40:30;;;;;;;6.13;1.50;;;12.00;99.90;;;;;;4554267;26;20280;-73
2024/04/11 08:42:31;;;;;;;2.87;1.43;;;12.20;99.90;;;;;;4548858;26;20240;-73
2024/04/11 08:44:35;;;;;;;7.53;1.50;;;12.20;99.90;;;;;;4554480;26;20247;-73
2024/04/11 08:46:36;;;;;;;3.67;1.60;;;12.30;99.90;;;;;;4554806;26;20283;-73
2024/04/11 08:48:43;;;;;;;5.03;1.37;;;12.40;99.90;;;;;;4550906;26;20256;-73
2024/04/11 08:50:44;;;;;;;5.17;1.30;;;12.50;99.90;;;;;;4552296;26;20254;-73
2024/04/11 08:52:46;;;;;;;5.03;1.00;;;12.60;99.90;;;;;;4563854;26;20247;-74
2024/04/11 08:54:49;;;;;;;5.10;1.67;;;12.70;99.90;;;;;;4553879;26;20247;-73
2024/04/11 08:56:52;;;;;;;6.67;1.37;;;12.80;95.90;;;;;;4551635;26;20641;-73
2024/04/11 08:58:55;;;;;;;5.30;1.07;;;12.90;93.10;;;;;;4544137;26;20275;-74
2024/04/11 09:00:59;;;;;;;2.57;0.83;;;13.00;95.70;;;;;;4548844;26;20235;-73
2024/04/11 09:03:03;;;;;;;7.97;1.13;;;13.00;97.70;;;;;;4544936;26;20245;-73
2024/04/11 09:05:10;;;;;;;2.50;1.00;;;13.10;94.10;;;;;;4547760;26;20232;-73
2024/04/11 09:07:23;;;;;;;6.17;1.10;;;13.20;86.50;;;;;;4548142;26;20713;-74
2024/04/11 09:09:24;;;;;;;4.87;1.20;;;13.40;80.60;;;;;;4550108;26;20805;-75
2024/04/11 09:11:31;;;;;;;3.63;0.93;;;13.50;78.70;;;;;;4554894;26;20280;-76
2024/04/11 09:13:32;;;;;;;4.23;1.17;;;13.60;68.80;;;;;;4549461;26;20234;-74
2024/04/11 09:15:36;;;;;;;3.87;1.17;;;13.70;71.40;;;;;;4553144;26;20312;-74
2024/04/11 09:17:40;;;;;;;3.53;0.83;;;13.70;65.60;;;;;;4551342;26;20241;-75
2024/04/11 09:19:46;;;;;;;4.07;0.90;;;13.70;64.40;;;;;;4550610;26;20240;-75
2024/04/11 09:21:50;;;;;;;5.47;1.17;;;13.80;65.70;;;;;;4548497;26;20266;-75
2024/04/11 09:23:53;;;;;;;4.93;1.20;;;13.80;65.00;;;;;;4548078;26;20372;-74
2024/04/11 09:26:00;;;;;;;2.73;0.90;;;13.90;63.90;;;;;;4553772;26;20257;-74
2024/04/11 09:28:03;;;;;;;2.93;1.27;;;13.90;65.80;;;;;;4545866;26;20229;-75
2024/04/11 09:30:06;;;;;;;1.77;0.90;;;14.00;60.90;;;;;;4553041;26;20245;-75
2024/04/11 09:32:15;;;;;;;3.53;1.10;;;14.00;72.10;;;;;;4552971;26;20717;-75
2024/04/11 09:34:20;;;;;;;3.13;1.00;;;14.10;63.30;;;;;;4549323;26;20231;-75
2024/04/11 09:36:27;;;;;;;2.40;0.80;;;14.10;66.00;;;;;;4551612;26;20237;-75
2024/04/11 09:38:32;;;;;;;3.53;0.83;;;14.20;66.10;;;;;;4553252;26;20244;-75
2024/04/11 09:40:38;;;;;;;3.67;1.10;;;14.30;64.70;;;;;;4549930;26;20989;-75
2024/04/11 09:42:40;;;;;;;6.83;1.70;;;14.30;64.30;;;;;;4547939;26;20707;-75
2024/04/11 09:44:47;;;;;;;3.83;1.70;;;14.40;67.20;;;;;;4547529;26;20241;-75
2024/04/11 09:46:48;;;;;;;6.07;1.77;;;14.50;70.50;;;;;;4547717;26;20242;-75
2024/04/11 09:48:55;;;;;;;2.07;1.00;;;14.50;66.20;;;;;;4549641;26;20354;-74
2024/04/11 09:50:57;;;;;;;4.07;1.20;;;14.60;68.20;;;;;;4551158;25;20725;-75
2024/04/11 09:53:02;;;;;;;3.23;1.03;;;14.60;67.70;;;;;;4551678;26;20271;-75
2024/04/11 09:55:07;;;;;;;3.00;0.87;;;14.70;66.80;;;;;;4547829;26;20748;-75
2024/04/11 09:57:12;;;;;;;3.03;1.30;;;14.80;61.30;;;;;;4550554;26;20305;-75
2024/04/11 09:59:13;;;;;;;4.30;1.50;;;14.80;62.40;;;;;;4547992;26;20254;-75
2024/04/11 10:01:29;;;;;;;2.53;1.10;;;14.80;71.10;;;;;;4551649;26;20254;-74
2024/04/11 10:03:31;;;;;;;3.73;1.20;;;14.90;70.20;;;;;;4550180;26;20295;-75
2024/04/11 10:05:40;;;;;;;5.97;1.63;;;14.90;74.10;;;;;;4542907;25;20334;-74
2024/04/11 10:07:41;;;;;;;2.60;1.30;;;15.10;62.30;;;;;;4543740;26;20379;-73
2024/04/11 10:09:52;;;;;;;3.87;1.33;;;15.10;72.40;;;;;;4549819;25;20299;-73
2024/04/11 10:12:01;;;;;;;5.90;1.27;;;15.10;68.00;;;;;;4554088;26;20268;-73
2024/04/11 10:14:05;;;;;;;3.50;1.23;;;15.20;65.30;;;;;;4553321;26;20292;-75
2024/04/11 10:16:13;;;;;;;5.60;1.13;;;15.20;65.50;;;;;;4557091;26;20846;-75
2024/04/11 10:18:17;;;;;;;13.50;6.63;;;15.30;64.10;;;;;;4551629;26;20354;-74
2024/04/11 10:20:20;;;;;;;6.43;2.07;;;15.40;60.00;;;;;;4554110;25;20287;-75
2024/04/11 10:22:24;;;;;;;4.73;1.43;;;15.40;61.20;;;;;;4551283;26;20298;-75
2024/04/11 10:24:31;;;;;;;4.30;1.10;;;15.50;60.70;;;;;;4556610;26;20359;-74
2024/04/11 10:26:35;;;;;;;4.53;1.20;;;15.60;59.30;;;;;;4551930;26;20242;-75
2024/04/11 10:28:41;;;;;;;1.73;1.17;;;15.60;59.60;;;;;;4542504;25;20834;-75
2024/04/11 10:30:47;;;;;;;8.30;1.37;;;15.70;57.20;;;;;;4547673;26;20356;-75
2024/04/11 10:32:51;;;;;;;5.13;1.33;;;15.80;55.40;;;;;;4550380;26;20238;-74
2024/04/11 10:34:58;;;;;;;3.87;1.10;;;15.90;55.70;;;;;;4545885;26;20352;-74
2024/04/11 10:37:02;;;;;;;4.80;1.20;;;16.10;59.50;;;;;;4546590;25;20775;-75
2024/04/11 10:39:08;;;;;;;6.10;1.73;;;16.20;55.00;;;;;;4553762;25;20244;-73
2024/04/11 10:41:16;;;;;;;1.90;0.93;;;16.40;55.90;;;;;;4549103;26;20707;-74
2024/04/11 10:43:24;;;;;;;3.17;0.83;;;16.50;53.50;;;;;;4554006;26;20243;-73
2024/04/11 10:45:30;;;;;;;2.97;0.77;;;16.70;47.10;;;;;;4550982;25;20646;-73
2024/04/11 10:47:32;;;;;;;5.10;1.00;;;16.80;49.10;;;;;;4554775;26;20582;-73